createdAt,value
2022-09-27T00:02:16.738Z,52.68
2022-09-27T00:04:45.658Z,52.94
2022-09-27T00:07:15.170Z,53.23
2022-09-27T00:09:46.003Z,53.13
2022-09-27T00:12:14.028Z,53.14
2022-09-27T00:14:42.050Z,53.20
2022-09-27T00:17:10.815Z,53.27
2022-09-27T00:19:38.847Z,52.99
2022-09-27T00:22:06.879Z,53.13
2022-09-27T00:24:35.320Z,52.89
2022-09-27T00:27:04.854Z,52.84
2022-09-27T00:29:32.943Z,52.82
2022-09-27T00:32:00.939Z,53.27
2022-09-27T00:34:28.995Z,52.94
2022-09-27T00:36:56.977Z,52.93
2022-09-27T00:39:26.509Z,53.15
2022-09-27T00:41:54.661Z,53.08
2022-09-27T00:45:02.895Z,53.04
2022-09-27T00:47:38.039Z,53.07
2022-09-27T00:50:09.577Z,53.24
2022-09-27T00:52:42.121Z,53.16
2022-09-27T00:55:14.371Z,53.08
2022-09-27T00:57:44.149Z,53.16
2022-09-27T01:00:15.158Z,52.98
2022-09-27T01:02:46.956Z,52.85
2022-09-27T01:05:16.671Z,52.99
2022-09-27T01:07:45.956Z,53.50
2022-09-27T01:10:15.608Z,53.26
2022-09-27T01:12:51.075Z,52.99
2022-09-27T01:15:24.756Z,52.99
2022-09-27T01:18:02.222Z,52.78
2022-09-27T01:21:03.548Z,52.83
2022-09-27T01:23:58.914Z,52.61
2022-09-27T01:26:31.810Z,52.71
2022-09-27T01:29:01.862Z,53.01
2022-09-27T01:31:33.283Z,52.88
2022-09-27T01:34:16.609Z,52.71
2022-09-27T01:36:50.025Z,52.68
2022-09-27T01:39:24.853Z,53.10
2022-09-27T01:41:57.454Z,52.90
2022-09-27T01:44:28.935Z,52.91
2022-09-27T01:47:01.274Z,52.86
2022-09-27T01:49:33.602Z,52.78
2022-09-27T01:52:03.765Z,52.99
2022-09-27T01:54:35.680Z,53.02
2022-09-27T01:57:04.800Z,52.65
2022-09-27T01:59:36.941Z,53.02
2022-09-27T02:02:09.965Z,53.08
2022-09-27T02:04:39.510Z,53.08
2022-09-27T02:07:11.137Z,53.13
2022-09-27T02:09:42.008Z,53.04
2022-09-27T02:12:12.742Z,52.91
2022-09-27T02:14:43.011Z,52.92
2022-09-27T02:17:16.329Z,53.09
2022-09-27T02:19:49.482Z,52.97
2022-09-27T02:22:23.292Z,52.83
2022-09-27T02:24:54.511Z,52.83
2022-09-27T02:27:23.834Z,52.87
2022-09-27T02:29:54.628Z,52.97
2022-09-27T02:32:24.084Z,52.95
2022-09-27T02:34:55.763Z,53.00
2022-09-27T02:37:25.275Z,52.74
2022-09-27T02:39:55.014Z,52.89
2022-09-27T02:42:24.325Z,52.82
2022-09-27T02:44:53.688Z,52.63
2022-09-27T02:47:40.911Z,52.90
2022-09-27T02:50:26.512Z,52.60
2022-09-27T02:52:58.661Z,52.73
2022-09-27T02:55:31.514Z,52.71
2022-09-27T02:58:06.208Z,52.83
2022-09-27T03:00:36.096Z,52.93
2022-09-27T03:03:08.808Z,52.82
2022-09-27T03:05:39.777Z,53.04
2022-09-27T03:08:09.146Z,53.09
2022-09-27T03:10:38.462Z,52.82
2022-09-27T03:13:06.484Z,52.82
2022-09-27T03:15:35.682Z,53.25
2022-09-27T03:18:03.784Z,53.09
2022-09-27T03:20:34.589Z,52.97
2022-09-27T03:23:03.940Z,52.56
2022-09-27T03:25:32.989Z,52.64
2022-09-27T03:28:02.798Z,52.60
2022-09-27T03:30:32.293Z,52.72
2022-09-27T03:33:01.386Z,52.86
2022-09-27T03:35:30.421Z,52.60
2022-09-27T03:38:01.111Z,52.66
2022-09-27T03:40:33.029Z,52.93
2022-09-27T03:43:02.551Z,53.09
2022-09-27T03:45:31.845Z,52.65
2022-09-27T03:48:01.350Z,53.04
2022-09-27T03:50:30.478Z,52.99
2022-09-27T03:53:01.273Z,53.08
2022-09-27T03:55:30.538Z,52.81
2022-09-27T03:57:59.888Z,52.99
2022-09-27T04:00:28.988Z,52.97
2022-09-27T04:03:01.178Z,53.05
2022-09-27T04:05:30.573Z,53.15
2022-09-27T04:08:01.176Z,52.98
2022-09-27T04:10:30.774Z,52.86
2022-09-27T04:13:00.533Z,53.25
2022-09-27T04:15:31.758Z,53.07
2022-09-27T04:18:00.835Z,52.80
2022-09-27T04:20:30.264Z,52.98
2022-09-27T04:22:59.502Z,52.87
2022-09-27T04:25:30.424Z,53.11
2022-09-27T04:27:59.467Z,53.07
2022-09-27T04:30:29.482Z,53.13
2022-09-27T04:32:59.070Z,52.91
2022-09-27T04:35:45.962Z,53.13
2022-09-27T04:38:15.531Z,52.87
2022-09-27T04:40:49.220Z,53.25
2022-09-27T04:43:18.906Z,53.19
2022-09-27T04:45:48.309Z,52.96
2022-09-27T04:48:16.866Z,53.06
2022-09-27T04:50:44.867Z,53.09
2022-09-27T04:53:15.212Z,53.04
2022-09-27T04:55:50.084Z,53.14
2022-09-27T04:58:19.497Z,53.07
2022-09-27T05:00:48.776Z,52.84
2022-09-27T05:03:24.836Z,53.06
2022-09-27T05:05:53.084Z,53.00
2022-09-27T05:08:24.604Z,53.17
2022-09-27T05:11:01.952Z,53.12
2022-09-27T05:13:31.436Z,52.87
2022-09-27T05:16:08.803Z,53.04
2022-09-27T05:18:40.283Z,53.12
2022-09-27T05:21:11.451Z,52.93
2022-09-27T05:23:43.677Z,53.12
2022-09-27T05:26:16.867Z,53.02
2022-09-27T05:28:47.318Z,53.15
2022-09-27T05:31:16.984Z,52.82
2022-09-27T05:33:46.305Z,53.06
2022-09-27T05:36:18.257Z,52.62
2022-09-27T05:38:47.741Z,52.93
2022-09-27T05:41:18.574Z,53.01
2022-09-27T05:43:47.735Z,52.65
2022-09-27T05:46:17.393Z,53.15
2022-09-27T05:48:46.562Z,52.93
2022-09-27T05:51:15.942Z,52.86
2022-09-27T05:53:45.341Z,53.15
2022-09-27T05:56:14.343Z,53.14
2022-09-27T05:58:44.839Z,53.06
2022-09-27T06:01:12.857Z,53.30
2022-09-27T06:03:41.235Z,52.92
2022-09-27T06:06:10.720Z,53.50
2022-09-27T06:08:39.409Z,53.93
2022-09-27T06:11:08.231Z,53.68
2022-09-27T06:13:36.357Z,53.73
2022-09-27T06:16:06.198Z,54.18
2022-09-27T06:18:34.240Z,53.75
2022-09-27T06:21:02.287Z,53.90
2022-09-27T06:23:32.745Z,53.77
2022-09-27T06:26:02.528Z,53.59
2022-09-27T06:28:30.617Z,53.45
2022-09-27T06:31:00.503Z,53.84
2022-09-27T06:33:29.975Z,53.81
2022-09-27T06:35:58.058Z,53.94
2022-09-27T06:38:26.151Z,53.82
2022-09-27T06:40:54.196Z,53.76
2022-09-27T06:43:22.250Z,54.18
2022-09-27T06:45:50.553Z,53.92
2022-09-27T06:48:18.664Z,53.81
2022-09-27T06:50:49.138Z,53.83
2022-09-27T06:53:17.733Z,54.16
2022-09-27T06:55:45.759Z,53.82
2022-09-27T06:58:30.870Z,54.08
2022-09-27T07:00:59.140Z,53.88
2022-09-27T07:03:35.526Z,54.27
2022-09-27T07:06:07.189Z,54.54
2022-09-27T07:08:36.085Z,54.47
2022-09-27T07:11:05.413Z,54.61
2022-09-27T07:13:34.668Z,54.46
2022-09-27T07:16:03.252Z,54.68
2022-09-27T07:18:31.380Z,54.53
2022-09-27T07:21:00.884Z,54.29
2022-09-27T07:23:30.354Z,54.43
2022-09-27T07:25:59.212Z,54.29
2022-09-27T07:28:27.241Z,54.55
2022-09-27T07:30:56.538Z,54.47
2022-09-27T07:33:24.693Z,54.13
2022-09-27T07:35:52.691Z,54.18
2022-09-27T07:38:20.702Z,54.51
2022-09-27T07:40:50.310Z,54.39
2022-09-27T07:43:19.588Z,54.32
2022-09-27T07:45:47.780Z,54.16
2022-09-27T07:48:16.395Z,54.16
2022-09-27T07:50:44.504Z,54.24
2022-09-27T07:53:13.953Z,53.96
2022-09-27T07:55:42.509Z,54.00
2022-09-27T07:58:13.750Z,54.00
2022-09-27T08:00:42.020Z,54.12
2022-09-27T08:03:11.274Z,53.97
2022-09-27T08:05:42.138Z,53.90
2022-09-27T08:08:10.255Z,54.11
2022-09-27T08:10:39.901Z,53.80
2022-09-27T08:13:08.367Z,53.70
2022-09-27T08:15:39.255Z,53.81
2022-09-27T08:18:07.926Z,53.76
2022-09-27T08:20:35.960Z,53.92
2022-09-27T08:23:04.426Z,53.91
2022-09-27T08:25:32.555Z,53.77
2022-09-27T08:28:01.457Z,53.31
2022-09-27T08:30:31.252Z,53.54
2022-09-27T08:33:02.503Z,53.45
2022-09-27T08:35:30.567Z,53.49
2022-09-27T08:37:59.808Z,53.41
2022-09-27T08:40:31.557Z,53.47
2022-09-27T08:43:02.966Z,53.35
2022-09-27T08:45:32.617Z,53.36
2022-09-27T08:48:02.660Z,53.61
2022-09-27T08:50:32.666Z,53.70
2022-09-27T08:53:04.041Z,53.39
2022-09-27T08:55:36.992Z,53.13
2022-09-27T08:58:06.275Z,53.28
2022-09-27T09:00:34.452Z,53.18
2022-09-27T09:03:04.062Z,53.42
2022-09-27T09:05:33.536Z,53.51
2022-09-27T09:08:14.716Z,53.13
2022-09-27T09:11:07.248Z,52.95
2022-09-27T09:13:46.728Z,52.95
2022-09-27T09:16:18.235Z,52.85
2022-09-27T09:18:56.569Z,52.98
2022-09-27T09:21:28.905Z,52.80
2022-09-27T09:24:17.972Z,52.60
2022-09-27T09:26:49.230Z,52.62
2022-09-27T09:29:41.762Z,52.59
2022-09-27T09:32:14.064Z,52.74
2022-09-27T09:34:43.944Z,52.81
2022-09-27T09:37:14.092Z,52.42
2022-09-27T09:39:43.983Z,52.26
2022-09-27T09:42:13.854Z,52.45
2022-09-27T09:44:46.915Z,52.19
2022-09-27T09:47:26.512Z,52.06
2022-09-27T09:49:57.160Z,52.02
2022-09-27T09:52:26.823Z,51.88
2022-09-27T09:54:56.816Z,52.00
2022-09-27T09:57:26.584Z,51.91
2022-09-27T09:59:58.464Z,51.83
2022-09-27T10:02:31.263Z,51.98
2022-09-27T10:05:05.252Z,51.65
2022-09-27T10:07:35.643Z,51.63
2022-09-27T10:10:04.243Z,51.49
2022-09-27T10:12:32.315Z,51.56
2022-09-27T10:15:01.340Z,51.50
2022-09-27T10:17:37.504Z,51.67
2022-09-27T10:20:07.945Z,51.52
2022-09-27T10:22:37.866Z,51.33
2022-09-27T10:25:08.021Z,51.30
2022-09-27T10:27:40.452Z,51.34
2022-09-27T10:30:14.689Z,51.53
2022-09-27T10:32:42.725Z,51.31
2022-09-27T10:35:36.902Z,51.31
2022-09-27T10:38:22.385Z,51.21
2022-09-27T10:40:50.653Z,51.20
2022-09-27T10:43:29.654Z,51.25
2022-09-27T10:46:13.881Z,51.20
2022-09-27T10:48:42.974Z,51.13
2022-09-27T10:51:24.154Z,50.99
2022-09-27T10:53:52.192Z,50.85
2022-09-27T10:56:30.545Z,51.10
2022-09-27T10:58:59.985Z,51.05
2022-09-27T11:01:28.152Z,50.99
2022-09-27T11:03:56.689Z,51.00
2022-09-27T11:06:32.173Z,51.03
2022-09-27T11:09:12.221Z,50.92
2022-09-27T11:11:40.350Z,51.08
2022-09-27T11:14:20.005Z,51.13
2022-09-27T11:17:01.331Z,51.10
2022-09-27T11:19:44.469Z,51.22
2022-09-27T11:22:23.127Z,51.39
2022-09-27T11:24:59.421Z,51.29
2022-09-27T11:27:32.975Z,51.36
2022-09-27T11:30:06.259Z,51.47
2022-09-27T11:32:58.539Z,51.44
2022-09-27T11:35:38.002Z,51.31
2022-09-27T11:38:29.621Z,51.51
2022-09-27T11:41:16.229Z,51.68
2022-09-27T11:44:04.053Z,51.51
2022-09-27T11:46:40.217Z,51.40
2022-09-27T11:49:32.410Z,51.38
2022-09-27T11:52:14.786Z,51.65
2022-09-27T11:54:51.756Z,53.48
2022-09-27T11:57:23.215Z,52.86
2022-09-27T12:00:05.909Z,54.85
2022-09-27T12:02:58.797Z,53.74
2022-09-27T12:05:27.210Z,52.93
2022-09-27T12:08:01.910Z,52.89
2022-09-27T12:10:31.294Z,53.60
2022-09-27T12:12:59.413Z,53.25
2022-09-27T12:15:30.267Z,53.28
2022-09-27T12:18:01.854Z,53.40
2022-09-27T12:20:31.157Z,53.50
2022-09-27T12:23:01.491Z,53.66
2022-09-27T12:25:33.294Z,53.76
2022-09-27T12:28:04.302Z,53.73
2022-09-27T12:30:32.803Z,53.71
2022-09-27T12:33:05.776Z,54.25
2022-09-27T12:35:35.640Z,54.24
2022-09-27T12:38:04.716Z,54.31
2022-09-27T12:40:34.919Z,54.14
2022-09-27T12:43:05.862Z,54.78
2022-09-27T12:45:45.751Z,54.92
2022-09-27T12:48:19.125Z,54.89
2022-09-27T12:50:54.387Z,54.79
2022-09-27T12:53:24.913Z,55.39
2022-09-27T12:56:09.456Z,55.38
2022-09-27T12:59:01.470Z,55.62
2022-09-27T13:01:37.728Z,55.74
2022-09-27T13:04:18.266Z,55.83
2022-09-27T13:07:00.777Z,55.48
2022-09-27T13:09:56.893Z,55.37
2022-09-27T13:12:27.003Z,54.99
2022-09-27T13:15:00.434Z,55.22
2022-09-27T13:17:50.929Z,55.37
2022-09-27T13:20:49.236Z,55.71
2022-09-27T13:23:50.839Z,56.01
2022-09-27T13:27:01.562Z,56.77
2022-09-27T13:29:36.933Z,56.28
2022-09-27T13:32:16.279Z,55.98
2022-09-27T13:34:47.435Z,56.63
2022-09-27T13:37:40.045Z,57.58
2022-09-27T13:40:32.725Z,56.63
2022-09-27T13:43:18.077Z,56.69
2022-09-27T13:45:55.180Z,55.93
2022-09-27T13:48:26.434Z,55.24
2022-09-27T13:50:56.378Z,55.37
2022-09-27T13:53:27.083Z,55.35
2022-09-27T13:55:55.036Z,56.23
2022-09-27T13:58:47.610Z,56.87
2022-09-27T14:01:22.345Z,56.83
2022-09-27T14:03:53.569Z,57.29
2022-09-27T14:06:22.581Z,57.57
2022-09-27T14:08:54.224Z,56.95
2022-09-27T14:11:24.653Z,56.85
2022-09-27T14:14:02.145Z,56.50
2022-09-27T14:16:34.052Z,56.46
2022-09-27T14:19:02.569Z,55.87
2022-09-27T14:21:32.415Z,55.97
2022-09-27T14:24:26.452Z,55.52
2022-09-27T14:27:07.546Z,55.81
2022-09-27T14:29:41.569Z,56.49
2022-09-27T14:32:13.240Z,55.73
2022-09-27T14:34:41.113Z,57.04
2022-09-27T14:37:25.947Z,57.76
2022-09-27T14:39:58.452Z,56.34
2022-09-27T14:42:27.192Z,56.52
2022-09-27T14:44:55.640Z,55.22
2022-09-27T14:47:25.899Z,54.44
2022-09-27T14:49:55.312Z,54.35
2022-09-27T14:52:27.844Z,54.91
2022-09-27T14:55:00.151Z,53.95
2022-09-27T14:57:29.617Z,53.59
2022-09-27T14:59:59.745Z,53.31
2022-09-27T15:02:28.997Z,52.99
2022-09-27T15:04:56.900Z,52.57
2022-09-27T15:07:24.847Z,52.91
2022-09-27T15:09:52.929Z,52.83
2022-09-27T15:12:26.003Z,52.76
2022-09-27T15:14:56.140Z,52.97
2022-09-27T15:17:25.340Z,52.89
2022-09-27T15:20:04.721Z,53.20
2022-09-27T15:22:37.818Z,53.15
2022-09-27T15:25:09.171Z,53.21
2022-09-27T15:27:37.352Z,53.57
2022-09-27T15:30:06.341Z,54.66
2022-09-27T15:32:34.373Z,55.04
2022-09-27T15:35:09.165Z,54.83
2022-09-27T15:37:37.846Z,55.68
2022-09-27T15:40:32.004Z,55.44
2022-09-27T15:43:55.931Z,55.21
2022-09-27T15:46:29.656Z,55.32
2022-09-27T15:49:22.396Z,54.94
2022-09-27T15:51:51.948Z,55.67
2022-09-27T15:54:20.862Z,55.14
2022-09-27T15:56:54.466Z,54.71
2022-09-27T15:59:25.690Z,54.94
2022-09-27T16:01:56.491Z,55.00
2022-09-27T16:04:24.460Z,55.15
2022-09-27T16:06:53.759Z,55.06
2022-09-27T16:09:22.049Z,55.62
2022-09-27T16:11:50.377Z,56.02
2022-09-27T16:14:19.319Z,55.23
2022-09-27T16:16:47.960Z,55.24
2022-09-27T16:19:15.992Z,56.13
2022-09-27T16:21:44.249Z,56.58
2022-09-27T16:24:13.672Z,55.84
2022-09-27T16:26:41.581Z,56.01
2022-09-27T16:29:10.862Z,55.94
2022-09-27T16:31:38.973Z,56.12
2022-09-27T16:34:06.992Z,56.31
2022-09-27T16:36:36.036Z,56.11
2022-09-27T16:39:05.808Z,56.35
2022-09-27T16:41:35.818Z,55.58
2022-09-27T16:44:07.589Z,55.53
2022-09-27T16:46:35.702Z,55.93
2022-09-27T16:49:03.845Z,55.90
2022-09-27T16:51:49.128Z,55.78
2022-09-27T16:54:17.643Z,55.99
2022-09-27T16:56:47.095Z,55.78
2022-09-27T16:59:15.069Z,55.55
2022-09-27T17:01:42.992Z,55.54
2022-09-27T17:04:11.040Z,55.43
2022-09-27T17:06:38.926Z,55.90
2022-09-27T17:09:06.925Z,55.78
2022-09-27T17:11:34.827Z,56.07
2022-09-27T17:14:04.108Z,55.77
2022-09-27T17:16:32.170Z,56.41
2022-09-27T17:19:00.114Z,56.42
2022-09-27T17:21:28.321Z,55.86
2022-09-27T17:23:56.665Z,55.73
2022-09-27T17:26:26.955Z,55.50
2022-09-27T17:28:57.375Z,55.16
2022-09-27T17:31:26.799Z,55.59
2022-09-27T17:33:57.840Z,55.87
2022-09-27T17:36:27.045Z,56.20
2022-09-27T17:38:55.027Z,55.93
2022-09-27T17:41:24.203Z,56.62
2022-09-27T17:43:54.930Z,56.74
2022-09-27T17:46:24.367Z,56.45
2022-09-27T17:49:25.593Z,56.33
2022-09-27T17:51:54.151Z,56.07
2022-09-27T17:54:23.378Z,55.84
2022-09-27T17:56:51.364Z,55.58
2022-09-27T17:59:19.328Z,55.93
2022-09-27T18:01:47.816Z,55.94
2022-09-27T18:04:18.628Z,55.66
2022-09-27T18:06:47.846Z,55.68
2022-09-27T18:09:17.195Z,55.83
2022-09-27T18:11:45.346Z,55.68
2022-09-27T18:14:13.368Z,55.88
2022-09-27T18:16:43.116Z,55.64
2022-09-27T18:19:12.037Z,55.60
2022-09-27T18:21:41.297Z,55.85
2022-09-27T18:24:10.135Z,55.69
2022-09-27T18:26:38.943Z,55.76
2022-09-27T18:29:08.022Z,55.84
2022-09-27T18:31:36.086Z,55.83
2022-09-27T18:34:04.121Z,55.95
2022-09-27T18:36:32.024Z,55.55
2022-09-27T18:39:02.230Z,55.56
2022-09-27T18:41:30.954Z,55.57
2022-09-27T18:44:00.888Z,55.82
2022-09-27T18:46:35.551Z,55.83
2022-09-27T18:49:04.486Z,56.06
2022-09-27T18:51:32.385Z,56.10
2022-09-27T18:54:02.681Z,56.40
2022-09-27T18:56:30.610Z,56.38
2022-09-27T18:58:59.823Z,55.67
2022-09-27T19:01:27.869Z,55.66
2022-09-27T19:03:55.875Z,55.35
2022-09-27T19:06:24.219Z,55.39
2022-09-27T19:08:54.769Z,55.53
2022-09-27T19:11:24.181Z,55.48
2022-09-27T19:13:52.624Z,55.20
2022-09-27T19:16:23.845Z,55.73
2022-09-27T19:18:51.845Z,55.11
2022-09-27T19:21:20.540Z,55.17
2022-09-27T19:23:48.900Z,55.25
2022-09-27T19:26:17.827Z,55.36
2022-09-27T19:28:47.158Z,55.41
2022-09-27T19:31:16.079Z,55.22
2022-09-27T19:33:44.045Z,55.36
2022-09-27T19:36:13.289Z,55.17
2022-09-27T19:38:41.139Z,55.22
2022-09-27T19:41:09.608Z,55.01
2022-09-27T19:43:37.629Z,55.14
2022-09-27T19:46:07.573Z,55.23
2022-09-27T19:48:36.829Z,55.02
2022-09-27T19:51:05.138Z,54.95
2022-09-27T19:53:33.231Z,55.13
2022-09-27T19:56:01.352Z,55.26
2022-09-27T19:58:29.906Z,55.03
2022-09-27T20:01:01.440Z,54.87
2022-09-27T20:03:30.984Z,55.19
2022-09-27T20:05:59.291Z,55.09
2022-09-27T20:08:27.360Z,55.35
2022-09-27T20:10:56.280Z,55.50
2022-09-27T20:13:24.676Z,55.15
2022-09-27T20:15:53.903Z,55.19
2022-09-27T20:18:21.907Z,54.95
2022-09-27T20:20:51.193Z,55.18
2022-09-27T20:23:20.185Z,55.05
2022-09-27T20:25:48.867Z,55.21
2022-09-27T20:28:16.826Z,55.31
2022-09-27T20:30:44.815Z,55.15
2022-09-27T20:33:29.822Z,55.10
2022-09-27T20:35:59.151Z,55.69
2022-09-27T20:38:28.069Z,55.31
2022-09-27T20:40:56.221Z,55.24
2022-09-27T20:43:26.491Z,55.01
2022-09-27T20:45:54.452Z,54.78
2022-09-27T20:48:22.511Z,54.75
2022-09-27T20:50:50.490Z,54.83
2022-09-27T20:53:20.102Z,54.60
2022-09-27T20:55:48.058Z,54.80
2022-09-27T20:58:15.976Z,54.60
2022-09-27T21:00:43.972Z,54.83
2022-09-27T21:03:11.962Z,54.80
2022-09-27T21:05:39.916Z,54.88
2022-09-27T21:08:07.848Z,54.96
2022-09-27T21:10:37.149Z,55.08
2022-09-27T21:13:17.455Z,54.52
2022-09-27T21:15:45.546Z,54.57
2022-09-27T21:18:13.914Z,54.71
2022-09-27T21:20:41.868Z,54.37
2022-09-27T21:23:09.802Z,54.37
2022-09-27T21:25:39.071Z,54.38
2022-09-27T21:28:06.971Z,54.19
2022-09-27T21:30:36.927Z,54.26
2022-09-27T21:33:04.928Z,54.25
2022-09-27T21:35:32.867Z,54.32
2022-09-27T21:38:00.825Z,54.51
2022-09-27T21:40:28.970Z,54.49
2022-09-27T21:42:58.321Z,54.29
2022-09-27T21:45:26.237Z,54.29
2022-09-27T21:47:54.181Z,53.94
2022-09-27T21:50:22.052Z,54.15
2022-09-27T21:52:49.933Z,54.25
2022-09-27T21:55:17.823Z,54.44
2022-09-27T21:57:45.734Z,54.17
2022-09-27T22:00:15.939Z,54.05
2022-09-27T22:02:44.121Z,54.13
2022-09-27T22:05:12.019Z,53.88
2022-09-27T22:07:39.916Z,54.07
2022-09-27T22:10:08.635Z,54.08
2022-09-27T22:12:36.569Z,54.19
2022-09-27T22:16:00.053Z,53.98
2022-09-27T22:18:29.382Z,54.09
2022-09-27T22:21:02.268Z,54.05
2022-09-27T22:23:30.180Z,54.02
2022-09-27T22:25:58.256Z,53.75
2022-09-27T22:28:26.208Z,53.52
2022-09-27T22:30:54.176Z,53.82
2022-09-27T22:33:22.089Z,53.52
2022-09-27T22:35:51.313Z,53.65
2022-09-27T22:38:19.204Z,53.71
2022-09-27T22:40:57.115Z,53.54
2022-09-27T22:43:26.270Z,53.58
2022-09-27T22:45:54.181Z,53.66
2022-09-27T22:48:22.076Z,53.51
2022-09-27T22:50:51.520Z,53.63
2022-09-27T22:53:19.421Z,53.63
2022-09-27T22:55:59.673Z,53.69
2022-09-27T22:58:29.891Z,53.69
2022-09-27T23:00:57.873Z,53.63
2022-09-27T23:03:25.802Z,53.45
2022-09-27T23:05:55.150Z,53.58
2022-09-27T23:08:23.076Z,53.69
2022-09-27T23:10:50.962Z,53.50
2022-09-27T23:13:19.318Z,53.54
2022-09-27T23:15:47.303Z,53.57
2022-09-27T23:18:15.266Z,53.62
2022-09-27T23:20:43.852Z,53.67
2022-09-27T23:23:15.433Z,53.42
2022-09-27T23:25:43.306Z,53.34
2022-09-27T23:28:11.244Z,53.31
2022-09-27T23:30:39.202Z,53.39
2022-09-27T23:33:08.371Z,53.10
2022-09-27T23:35:36.266Z,52.98
2022-09-27T23:38:04.139Z,53.20
2022-09-27T23:40:35.949Z,53.29
2022-09-27T23:43:04.576Z,52.83
2022-09-27T23:45:33.427Z,53.27
2022-09-27T23:48:02.080Z,52.89
2022-09-27T23:50:31.036Z,52.92
2022-09-27T23:52:59.137Z,52.92
2022-09-27T23:55:27.078Z,53.27
2022-09-27T23:57:56.688Z,53.07
